Time;durP1;ratioP1;P1;durP2;ratioP2;P2;SDS_P1;SDS_P2;PMS_P1;PMS_P2;Temp;Humidity;BMP_temperature;BMP_pressure;BME280_temperature;BME280_humidity;BME280_pressure;Samples;Min_cycle;Max_cycle;Signal;HPM_P1;HPM_P2
2023/10/15 00:00:29;;;;;;;7.53;1.15;;;;;;;10.02;88.56;100559.97;5186531;28;20037;-74
2023/10/15 00:02:59;;;;;;;10.40;1.33;;;;;;;9.92;88.38;100559.38;5190836;28;20104;-75
2023/10/15 00:05:30;;;;;;;9.32;1.35;;;;;;;9.90;88.31;100563.81;5186075;28;20395;-74
2023/10/15 00:08:00;;;;;;;12.13;1.80;;;;;;;9.91;88.47;100564.63;5188288;28;20033;-74
2023/10/15 00:10:31;;;;;;;8.45;1.65;;;;;;;9.69;89.17;100572.31;5177095;28;20136;-75
2023/10/15 00:13:04;;;;;;;9.75;1.50;;;;;;;9.82;88.44;100567.56;5187182;28;20037;-73
2023/10/15 00:15:35;;;;;;;10.00;1.40;;;;;;;9.85;88.09;100572.69;5188679;28;20510;-75
2023/10/15 00:18:09;;;;;;;11.00;1.70;;;;;;;9.82;88.16;100578.00;5185306;28;20124;-75
2023/10/15 00:20:40;;;;;;;8.77;1.40;;;;;;;9.89;88.67;100566.44;5178230;28;20029;-71
2023/10/15 00:23:13;;;;;;;13.02;2.03;;;;;;;9.84;88.70;100571.81;5166027;28;20088;-74
2023/10/15 00:25:47;;;;;;;9.30;1.30;;;;;;;9.83;88.55;100569.28;5188660;28;20025;-75
2023/10/15 00:28:17;;;;;;;7.03;1.38;;;;;;;9.84;88.92;100571.81;5168496;28;20026;-70
2023/10/15 00:30:48;;;;;;;12.45;1.67;;;;;;;9.85;88.28;100572.69;5188011;28;20021;-72
2023/10/15 00:33:19;;;;;;;8.35;1.40;;;;;;;9.85;88.21;100567.47;5187645;28;20037;-71
2023/10/15 00:35:58;;;;;;;10.02;1.40;;;;;;;9.87;87.99;100560.44;5188424;28;20087;-75
2023/10/15 00:38:28;;;;;;;6.85;1.38;;;;;;;9.76;87.98;100562.53;5166498;28;20030;-74
2023/10/15 00:41:07;;;;;;;8.77;1.30;;;;;;;9.72;88.43;100566.16;5171008;28;20387;-74
2023/10/15 00:43:50;;;;;;;9.65;2.10;;;;;;;9.74;88.16;100553.91;5164359;28;20249;-75
2023/10/15 00:46:24;;;;;;;8.95;1.33;;;;;;;9.67;88.92;100561.06;5185035;28;20112;-73
2023/10/15 00:51:55;;;;;;;12.73;1.30;;;;;;;9.77;88.17;100564.22;5170773;28;20041;-74
2023/10/15 00:54:26;;;;;;;11.80;1.50;;;;;;;9.75;88.48;100556.47;5186983;28;20052;-75
2023/10/15 00:56:57;;;;;;;9.50;1.55;;;;;;;9.70;88.04;100567.97;5185778;28;20048;-72
2023/10/15 00:59:45;;;;;;;11.52;1.38;;;;;;;9.69;88.78;100550.59;5167446;28;20018;-74
2023/10/15 01:02:22;;;;;;;7.45;1.35;;;;;;;9.67;89.01;100558.47;5187271;28;20040;-71
2023/10/15 01:04:53;;;;;;;9.25;1.75;;;;;;;9.60;88.97;100556.97;5187753;28;20391;-74
2023/10/15 01:07:38;;;;;;;11.35;1.45;;;;;;;9.59;88.70;100555.25;5164565;28;20076;-75
2023/10/15 01:10:19;;;;;;;7.30;1.30;;;;;;;9.69;88.72;100561.88;5186173;28;20037;-74
2023/10/15 01:12:49;;;;;;;8.60;1.50;;;;;;;9.68;89.50;100564.53;5182416;28;20029;-73
2023/10/15 01:15:19;;;;;;;9.77;1.52;;;;;;;9.60;88.90;100550.88;5186118;28;20548;-74
2023/10/15 01:17:54;;;;;;;9.80;1.10;;;;;;;9.65;89.20;100564.66;5184826;28;20057;-74
2023/10/15 01:20:30;;;;;;;10.52;1.45;;;;;;;9.63;89.48;100551.63;5183506;28;20427;-70
2023/10/15 01:23:00;;;;;;;8.98;1.40;;;;;;;9.59;90.23;100555.25;5186802;28;20037;-75
2023/10/15 01:25:32;;;;;;;9.98;1.52;;;;;;;9.49;89.76;100555.59;5185758;28;20049;-74
2023/10/15 01:28:06;;;;;;;9.88;1.50;;;;;;;9.60;89.35;100556.97;5183099;28;20033;-74
2023/10/15 01:30:36;;;;;;;9.05;1.83;;;;;;;9.45;89.48;100551.38;5173663;28;20034;-75
2023/10/15 01:33:10;;;;;;;7.03;1.70;;;;;;;9.46;89.76;100547.88;5178248;28;20034;-74
2023/10/15 01:35:44;;;;;;;11.02;1.55;;;;;;;9.39;89.47;100551.56;5175032;28;20068;-75
2023/10/15 01:38:21;;;;;;;6.50;1.20;;;;;;;9.48;89.40;100556.50;5178500;28;20276;-72
2023/10/15 01:40:56;;;;;;;9.77;1.42;;;;;;;9.49;89.88;100553.81;5177078;28;20041;-74
2023/10/15 01:43:27;;;;;;;11.57;1.58;;;;;;;9.42;90.18;100552.31;5157114;28;20026;-73
2023/10/15 01:45:58;;;;;;;7.18;1.13;;;;;;;9.48;90.20;100551.28;5176772;28;20034;-74
2023/10/15 01:48:31;;;;;;;5.85;1.00;;;;;;;9.55;90.19;100552.78;5175546;28;20297;-74
2023/10/15 01:51:06;;;;;;;9.52;1.38;;;;;;;9.41;90.03;100552.38;5160606;28;20025;-74
2023/10/15 01:53:38;;;;;;;8.75;1.27;;;;;;;9.44;90.18;100550.53;5174107;28;20442;-73
2023/10/15 01:56:16;;;;;;;14.85;1.70;;;;;;;9.37;90.90;100553.38;5164007;28;20162;-74
2023/10/15 01:58:47;;;;;;;11.80;0.95;;;;;;;9.39;90.99;100551.56;5180937;28;20025;-74
2023/10/15 02:01:20;;;;;;;14.27;2.17;;;;;;;9.36;90.29;100547.31;5183491;28;20083;-75
2023/10/15 02:03:51;;;;;;;10.98;1.50;;;;;;;9.34;91.34;100554.31;5175360;28;20573;-73
2023/10/15 02:06:21;;;;;;;9.18;1.30;;;;;;;9.30;91.55;100552.69;5181155;28;20026;-75
2023/10/15 02:08:51;;;;;;;9.90;1.70;;;;;;;9.36;90.44;100554.28;5163909;28;20537;-73
2023/10/15 02:11:22;;;;;;;9.98;1.35;;;;;;;9.28;90.70;100559.72;5187865;28;20025;-74
2023/10/15 02:13:55;;;;;;;7.97;1.20;;;;;;;9.32;90.43;100544.84;5186831;28;20407;-74
2023/10/15 02:16:29;;;;;;;8.77;1.38;;;;;;;9.33;90.36;100551.75;5187240;28;20188;-75
2023/10/15 02:18:59;;;;;;;8.93;1.38;;;;;;;9.27;91.19;100551.94;5187895;28;20475;-74
2023/10/15 02:21:31;;;;;;;12.88;1.33;;;;;;;9.46;90.38;100550.50;5187489;28;20029;-74
2023/10/15 02:24:08;;;;;;;9.27;1.55;;;;;;;9.40;89.47;100548.91;5168882;28;20029;-75
2023/10/15 02:26:38;;;;;;;11.02;1.33;;;;;;;9.33;89.76;100546.53;5173875;28;20018;-74
2023/10/15 02:29:34;;;;;;;9.05;1.42;;;;;;;9.38;90.22;100542.91;5186985;28;20029;-74
2023/10/15 02:32:07;;;;;;;14.90;1.83;;;;;;;9.31;90.27;100548.34;5186892;28;20048;-73
2023/10/15 02:34:41;;;;;;;12.30;1.30;;;;;;;9.36;91.00;100542.09;5183326;28;20028;-76
2023/10/15 02:37:17;;;;;;;8.02;1.30;;;;;;;9.27;90.21;100541.50;5186613;28;20498;-74
2023/10/15 02:39:51;;;;;;;9.82;1.83;;;;;;;9.35;91.43;100537.75;5182070;28;20029;-74
2023/10/15 02:42:30;;;;;;;8.15;1.35;;;;;;;9.26;91.32;100539.78;5181678;28;20075;-74
2023/10/15 02:45:05;;;;;;;8.98;1.25;;;;;;;9.32;90.47;100534.41;5180708;28;20030;-75
2023/10/15 02:47:57;;;;;;;10.55;1.52;;;;;;;9.32;90.41;100529.19;5166140;28;20459;-74
2023/10/15 02:50:27;;;;;;;11.73;1.50;;;;;;;9.34;90.68;100528.22;5182653;28;20040;-74
2023/10/15 02:53:00;;;;;;;11.30;1.33;;;;;;;9.35;90.77;100527.31;5184597;28;20021;-75
2023/10/15 02:55:36;;;;;;;10.30;1.27;;;;;;;9.53;90.56;100523.28;5182164;28;20065;-73
2023/10/15 02:58:07;;;;;;;8.68;1.13;;;;;;;9.46;90.50;100534.84;5186291;28;20129;-74
2023/10/15 03:00:41;;;;;;;10.68;1.77;;;;;;;9.45;90.38;100522.69;5185338;28;20567;-74
2023/10/15 03:03:15;;;;;;;6.97;1.40;;;;;;;9.53;89.95;100516.34;5188130;28;20486;-74
2023/10/15 03:05:46;;;;;;;7.13;1.10;;;;;;;9.58;90.33;100516.16;5184041;28;20501;-74
2023/10/15 03:08:20;;;;;;;13.93;1.65;;;;;;;9.44;90.46;100515.75;5188786;28;20475;-74
2023/10/15 03:10:56;;;;;;;8.95;1.27;;;;;;;9.54;89.80;100530.22;5187653;28;20037;-74
2023/10/15 03:13:26;;;;;;;8.57;1.15;;;;;;;9.49;89.79;100527.75;5187612;28;20527;-74
2023/10/15 03:15:57;;;;;;;7.07;1.48;;;;;;;9.45;90.26;100526.13;5186060;28;20164;-73
2023/10/15 03:18:28;;;;;;;11.23;1.45;;;;;;;9.50;90.06;100518.19;5187731;28;20457;-74
2023/10/15 03:21:16;;;;;;;11.35;1.70;;;;;;;9.42;89.41;100525.38;5186046;28;20434;-74
2023/10/15 03:23:49;;;;;;;12.50;1.50;;;;;;;9.31;89.99;100532.69;5168245;28;20383;-74
2023/10/15 03:26:19;;;;;;;10.73;1.60;;;;;;;9.33;89.71;100542.16;5188219;28;20257;-74
2023/10/15 03:28:52;;;;;;;10.38;1.35;;;;;;;9.45;90.64;100533.13;5188498;28;20064;-75
2023/10/15 03:31:25;;;;;;;7.57;1.38;;;;;;;9.39;89.89;100526.34;5182898;28;20029;-73
2023/10/15 03:34:13;;;;;;;7.78;1.17;;;;;;;9.37;90.46;100528.16;5186517;28;20265;-74
2023/10/15 03:36:59;;;;;;;7.43;1.45;;;;;;;9.34;90.60;100525.63;5190132;28;20209;-74
2023/10/15 03:42:17;;;;;;;10.73;1.60;;;;;;;9.39;90.90;100531.56;5194114;28;20037;-73
2023/10/15 03:44:47;;;;;;;11.20;1.48;;;;;;;9.46;90.17;100540.06;5190125;28;20455;-73
2023/10/15 03:47:22;;;;;;;7.53;1.40;;;;;;;9.37;90.04;100542.94;5188081;28;20116;-71
2023/10/15 03:49:55;;;;;;;9.90;1.73;;;;;;;9.42;90.39;100530.59;5193054;28;20060;-72
2023/10/15 03:52:26;;;;;;;9.88;1.33;;;;;;;9.44;90.18;100544.44;5187039;28;20415;-74
2023/10/15 03:54:57;;;;;;;6.32;0.95;;;;;;;9.49;90.53;100543.41;5189943;28;20022;-75
2023/10/15 03:57:28;;;;;;;6.65;1.20;;;;;;;9.45;90.33;100548.78;5188887;28;20403;-76
2023/10/15 03:59:58;;;;;;;7.80;1.27;;;;;;;9.48;90.15;100546.06;5192080;28;20495;-75
2023/10/15 04:02:45;;;;;;;8.70;1.20;;;;;;;9.42;90.11;100541.03;5190545;28;20037;-70
2023/10/15 04:05:20;;;;;;;9.27;1.10;;;;;;;9.34;90.11;100550.84;5189195;28;20048;-72
2023/10/15 04:07:53;;;;;;;7.47;1.08;;;;;;;9.40;90.54;100548.03;5189590;28;20507;-74
2023/10/15 04:10:23;;;;;;;9.85;1.38;;;;;;;9.47;90.46;100541.75;5190140;28;20119;-71
2023/10/15 04:12:54;;;;;;;7.55;1.15;;;;;;;9.49;90.44;100540.78;5170218;28;20084;-73
2023/10/15 04:15:24;;;;;;;10.73;1.48;;;;;;;9.44;90.66;100534.88;5185958;28;20037;-70
2023/10/15 04:17:54;;;;;;;6.15;1.38;;;;;;;9.49;90.51;100538.19;5189332;28;20171;-74
2023/10/15 04:20:33;;;;;;;9.27;1.30;;;;;;;9.48;90.21;100531.25;5189060;28;20360;-72
2023/10/15 04:23:03;;;;;;;6.00;1.35;;;;;;;9.52;90.00;100538.06;5191385;28;20545;-75
2023/10/15 04:25:36;;;;;;;7.97;1.20;;;;;;;9.55;90.19;100537.13;5172514;28;20025;-75
2023/10/15 04:28:18;;;;;;;10.60;1.80;;;;;;;9.45;90.21;100536.56;5192337;28;20028;-74
2023/10/15 04:30:50;;;;;;;5.90;1.13;;;;;;;9.50;89.71;100529.44;5188859;28;20056;-71
2023/10/15 04:33:20;;;;;;;7.68;1.25;;;;;;;9.47;89.76;100528.72;5188678;28;20368;-75
2023/10/15 04:35:51;;;;;;;6.80;1.23;;;;;;;9.49;90.55;100534.72;5191940;28;20040;-74
2023/10/15 04:38:28;;;;;;;7.00;1.63;;;;;;;9.54;90.25;100536.28;5191125;28;20045;-73
2023/10/15 04:43:29;;;;;;;5.93;1.00;;;;;;;9.39;90.59;100528.97;5186922;28;20025;-74
2023/10/15 04:46:02;;;;;;;7.90;1.15;;;;;;;9.44;91.22;100531.41;5190681;28;20398;-74
2023/10/15 04:48:36;;;;;;;4.88;1.00;;;;;;;9.40;90.49;100521.97;5185936;28;20030;-74
2023/10/15 04:51:13;;;;;;;5.85;1.30;;;;;;;9.29;90.58;100518.88;5189643;28;20033;-74
2023/10/15 04:53:48;;;;;;;5.47;0.93;;;;;;;9.41;90.46;100521.06;5190476;28;20036;-71
2023/10/15 04:56:18;;;;;;;;;;;;;;;9.45;90.17;100525.31;5189460;28;20048;-73
2023/10/15 04:58:49;;;;;;;6.00;0.80;;;;;;;9.39;90.68;100525.47;5190302;28;19913;-74
2023/10/15 05:01:19;;;;;;;5.93;1.23;;;;;;;9.38;91.16;100521.16;5186893;28;20029;-75
2023/10/15 05:03:50;;;;;;;4.25;0.63;;;;;;;9.28;90.54;100524.97;5187145;28;20033;-75
2023/10/15 05:06:21;;;;;;;5.68;0.80;;;;;;;9.28;90.25;100528.44;5191511;28;20164;-74
2023/10/15 05:08:53;;;;;;;5.28;1.00;;;;;;;9.27;91.44;100531.06;5190463;28;20065;-74
2023/10/15 05:11:24;;;;;;;5.30;1.08;;;;;;;9.39;91.25;100525.47;5188603;28;20026;-72
2023/10/15 05:13:54;;;;;;;6.88;1.17;;;;;;;9.37;90.60;100532.50;5170062;28;20029;-73
2023/10/15 05:16:24;;;;;;;7.90;1.92;;;;;;;9.47;90.90;100533.94;5185940;28;20044;-71
2023/10/15 05:18:55;;;;;;;6.18;1.27;;;;;;;9.46;90.12;100527.84;5170794;28;20725;-73
2023/10/15 05:21:25;;;;;;;4.80;1.00;;;;;;;9.39;91.42;100525.47;5188017;28;20097;-72
2023/10/15 05:23:55;;;;;;;6.60;0.90;;;;;;;9.28;90.96;100522.38;5189821;28;20022;-74
2023/10/15 05:26:25;;;;;;;5.53;1.00;;;;;;;9.38;90.48;100519.44;5189323;28;20040;-74
2023/10/15 05:28:56;;;;;;;5.75;0.90;;;;;;;9.37;90.78;100538.59;5190039;28;20033;-74
2023/10/15 05:31:26;;;;;;;6.82;0.82;;;;;;;9.22;90.96;100528.63;5186807;28;20045;-73
2023/10/15 05:33:57;;;;;;;5.00;0.63;;;;;;;9.26;90.89;100537.19;5191167;28;20590;-75
2023/10/15 05:36:27;;;;;;;5.70;1.25;;;;;;;9.27;90.87;100529.31;5170087;28;20046;-74
2023/10/15 05:38:57;;;;;;;11.05;1.40;;;;;;;9.24;91.21;100526.81;5192409;28;20025;-74
2023/10/15 05:41:31;;;;;;;6.68;1.00;;;;;;;9.22;91.65;100533.84;5171739;28;20041;-74
2023/10/15 05:44:01;;;;;;;4.80;1.00;;;;;;;9.20;91.30;100534.78;5168505;28;20034;-72
2023/10/15 05:46:32;;;;;;;3.03;0.70;;;;;;;9.26;91.72;100534.56;5170146;28;20387;-73
2023/10/15 05:49:02;;;;;;;7.47;1.15;;;;;;;9.19;92.05;100533.06;5188521;28;20072;-73
2023/10/15 05:51:32;;;;;;;6.45;1.23;;;;;;;9.05;92.23;100542.22;5187851;28;20533;-75
2023/10/15 05:54:04;;;;;;;3.15;0.60;;;;;;;8.98;92.35;100548.50;5185382;28;20304;-73
2023/10/15 05:56:34;;;;;;;4.18;0.80;;;;;;;9.02;92.08;100545.75;5172745;28;20052;-74
2023/10/15 05:59:05;;;;;;;5.07;0.90;;;;;;;9.15;91.91;100553.16;5186643;28;20026;-73
2023/10/15 06:01:35;;;;;;;4.93;0.77;;;;;;;9.06;92.31;100543.94;5183949;28;20519;-74
2023/10/15 06:04:05;;;;;;;4.80;0.77;;;;;;;9.08;92.66;100539.50;5169212;28;20028;-74
2023/10/15 06:06:36;;;;;;;5.57;0.50;;;;;;;9.04;92.42;100545.72;5189015;28;20500;-72
2023/10/15 06:09:07;;;;;;;8.18;1.05;;;;;;;8.94;93.11;100546.88;5171730;28;20040;-74
2023/10/15 06:11:38;;;;;;;4.43;0.70;;;;;;;9.05;93.31;100544.81;5187797;28;20042;-74
2023/10/15 06:14:08;;;;;;;6.03;1.33;;;;;;;9.11;93.15;100545.50;5184052;28;20431;-74
2023/10/15 06:16:39;;;;;;;4.78;1.00;;;;;;;8.90;93.22;100546.13;5176005;28;20494;-74
2023/10/15 06:19:09;;;;;;;6.22;1.13;;;;;;;9.04;92.58;100554.38;5164054;28;20603;-74
2023/10/15 06:21:40;;;;;;;4.88;0.90;;;;;;;8.97;92.63;100552.00;5178239;28;20426;-74
2023/10/15 06:24:10;;;;;;;5.95;1.92;;;;;;;9.09;92.97;100552.50;5182045;28;20120;-74
2023/10/15 06:26:41;;;;;;;2.95;0.60;;;;;;;9.11;92.39;100561.16;5178262;28;20021;-74
2023/10/15 06:29:13;;;;;;;3.72;0.80;;;;;;;9.17;92.10;100555.72;5177306;28;20109;-74
2023/10/15 06:31:43;;;;;;;4.20;0.82;;;;;;;9.26;92.47;100568.47;5172742;28;20846;-74
2023/10/15 06:34:15;;;;;;;6.60;1.00;;;;;;;9.22;91.63;100569.47;5184495;28;20395;-75
2023/10/15 06:36:47;;;;;;;1.90;0.55;;;;;;;9.27;91.94;100567.56;5190324;28;20044;-75
2023/10/15 06:39:17;;;;;;;2.50;0.70;;;;;;;9.18;91.06;100576.53;5171891;28;20124;-72
2023/10/15 06:41:48;;;;;;;3.22;0.75;;;;;;;9.23;91.06;100592.03;5188995;28;20275;-74
2023/10/15 06:44:19;;;;;;;5.00;0.75;;;;;;;9.11;91.06;100595.03;5188452;28;20094;-70
2023/10/15 06:46:49;;;;;;;4.35;0.70;;;;;;;9.30;90.97;100591.81;5185842;28;20386;-74
2023/10/15 06:49:20;;;;;;;6.35;0.77;;;;;;;9.27;90.45;100593.66;5189663;28;20022;-75
2023/10/15 06:51:51;;;;;;;2.83;0.82;;;;;;;9.38;90.53;100592.44;5171609;28;20124;-74
2023/10/15 06:54:21;;;;;;;4.05;0.60;;;;;;;9.39;89.65;100606.34;5213721;22;20049;-71
2023/10/15 06:56:51;;;;;;;3.38;0.32;;;;;;;9.34;90.09;100610.84;5221927;28;20032;-72
2023/10/15 06:59:22;;;;;;;1.80;0.45;;;;;;;9.38;90.10;100607.22;5212276;28;20021;-72
2023/10/15 07:01:52;;;;;;;2.50;0.80;;;;;;;9.41;90.48;100609.75;5217477;28;20029;-72
2023/10/15 07:04:24;;;;;;;2.47;0.80;;;;;;;9.40;91.49;100615.84;5201569;28;20063;-72
2023/10/15 07:06:54;;;;;;;4.90;0.73;;;;;;;9.45;91.30;100624.44;5200272;28;20032;-72
2023/10/15 07:09:27;;;;;;;4.47;0.60;;;;;;;9.81;89.55;100620.69;5203221;28;20021;-72
2023/10/15 07:11:59;;;;;;;1.67;0.43;;;;;;;9.73;88.77;100622.66;5205016;28;20055;-72
2023/10/15 07:14:30;;;;;;;3.67;0.55;;;;;;;9.83;88.89;100621.47;5223067;28;20035;-72
2023/10/15 07:17:00;;;;;;;2.40;0.60;;;;;;;9.81;89.10;100628.50;5223090;28;20055;-72
2023/10/15 07:19:30;;;;;;;3.40;0.70;;;;;;;9.86;87.64;100622.22;5222419;28;20029;-72
2023/10/15 07:22:01;;;;;;;3.13;0.50;;;;;;;9.90;87.44;100633.41;5204632;28;20036;-72
2023/10/15 07:24:31;;;;;;;1.23;0.43;;;;;;;9.99;87.66;100636.59;5221364;28;20060;-72
2023/10/15 07:27:04;;;;;;;2.78;0.50;;;;;;;10.18;87.25;100639.50;5226111;28;20025;-72
2023/10/15 07:29:34;;;;;;;3.00;0.70;;;;;;;10.44;86.46;100644.69;5215607;28;20029;-73
2023/10/15 07:32:04;;;;;;;3.70;0.45;;;;;;;10.76;85.03;100650.53;5232493;28;20390;-72
2023/10/15 07:34:35;;;;;;;2.00;0.45;;;;;;;11.17;82.11;100648.16;5210198;28;20032;-70
2023/10/15 07:37:05;;;;;;;4.13;0.70;;;;;;;11.74;82.18;100643.34;5232515;28;20028;-70
2023/10/15 07:39:37;;;;;;;3.65;0.70;;;;;;;11.37;80.93;100643.00;5232481;28;20622;-70
2023/10/15 07:42:07;;;;;;;2.80;0.68;;;;;;;11.36;80.91;100654.41;5233609;28;20063;-70
2023/10/15 07:44:37;;;;;;;4.68;0.75;;;;;;;11.48;81.61;100648.69;5227918;28;20936;-70
2023/10/15 07:47:07;;;;;;;3.80;0.57;;;;;;;11.54;82.38;100647.59;5230811;28;20500;-70
2023/10/15 07:49:38;;;;;;;4.00;0.50;;;;;;;11.83;78.92;100650.84;5232311;28;20059;-70
2023/10/15 07:52:08;;;;;;;1.98;0.40;;;;;;;12.46;76.94;100648.22;5231580;28;20175;-70
2023/10/15 07:54:38;;;;;;;2.70;0.60;;;;;;;13.00;75.38;100657.22;5231116;28;20040;-70
2023/10/15 07:57:10;;;;;;;2.80;0.60;;;;;;;12.85;75.43;100654.34;5229184;28;20098;-69
2023/10/15 07:59:40;;;;;;;2.40;0.60;;;;;;;13.05;75.77;100662.28;5231928;28;20032;-70
2023/10/15 08:02:12;;;;;;;2.70;1.02;;;;;;;12.89;75.69;100661.22;5215676;28;20020;-70
2023/10/15 08:04:43;;;;;;;2.90;0.63;;;;;;;13.23;74.68;100657.03;5231168;28;20020;-70
2023/10/15 08:07:13;;;;;;;2.60;0.55;;;;;;;13.18;76.10;100666.91;5231787;28;20028;-70
2023/10/15 08:09:44;;;;;;;2.40;0.65;;;;;;;13.12;75.86;100666.31;5212475;28;20409;-70
2023/10/15 08:12:14;;;;;;;1.63;0.45;;;;;;;12.51;76.85;100667.25;5203111;28;20107;-70
2023/10/15 08:14:48;;;;;;;1.75;0.68;;;;;;;11.95;77.73;100670.47;5208206;28;20097;-71
2023/10/15 08:17:18;;;;;;;1.23;0.40;;;;;;;12.02;79.29;100683.25;5229759;28;20034;-70
2023/10/15 08:19:49;;;;;;;4.18;0.50;;;;;;;11.59;80.04;100677.97;5231486;28;20458;-70
2023/10/15 08:22:19;;;;;;;2.17;0.40;;;;;;;11.64;80.50;100676.00;5229644;28;20024;-70
2023/10/15 08:24:49;;;;;;;5.70;0.70;;;;;;;11.90;80.90;100678.50;5233244;28;20028;-70
2023/10/15 08:27:20;;;;;;;1.60;0.50;;;;;;;12.89;76.18;100669.06;5231987;28;20466;-70
2023/10/15 08:29:50;;;;;;;2.47;0.70;;;;;;;12.96;76.13;100680.19;5229648;28;20041;-70
2023/10/15 08:32:20;;;;;;;2.33;0.60;;;;;;;13.09;76.77;100679.56;5221423;28;20613;-70
2023/10/15 08:34:51;;;;;;;2.58;0.50;;;;;;;12.85;76.52;100677.13;5230026;28;20111;-70
2023/10/15 08:37:22;;;;;;;3.78;0.57;;;;;;;12.48;77.54;100682.22;5227014;28;20476;-70
2023/10/15 08:39:53;;;;;;;1.50;0.50;;;;;;;12.55;78.13;100674.06;5230380;28;20308;-70
2023/10/15 08:42:26;;;;;;;6.88;0.70;;;;;;;13.27;75.75;100681.38;5227226;28;20033;-70
2023/10/15 08:44:58;;;;;;;4.38;0.93;;;;;;;12.28;76.53;100690.91;5232747;28;20048;-71
2023/10/15 08:47:29;;;;;;;2.97;0.40;;;;;;;11.82;78.95;100700.66;5225236;28;20032;-70
2023/10/15 08:50:00;;;;;;;2.65;0.75;;;;;;;11.91;80.45;100703.75;5211822;28;20025;-70
2023/10/15 08:52:31;;;;;;;2.40;0.50;;;;;;;11.86;81.63;100700.47;5225655;28;20024;-70
2023/10/15 08:55:01;;;;;;;4.75;0.70;;;;;;;11.58;82.15;100712.06;5230008;28;20075;-70
2023/10/15 08:57:32;;;;;;;1.70;0.45;;;;;;;11.38;82.79;100704.91;5229242;28;20033;-69
2023/10/15 09:00:04;;;;;;;2.33;0.68;;;;;;;11.01;83.70;100714.13;5228575;28;20528;-70
2023/10/15 09:02:34;;;;;;;3.80;0.65;;;;;;;11.79;81.98;100717.31;5228242;28;20033;-69
2023/10/15 09:05:05;;;;;;;2.92;0.45;;;;;;;11.77;80.43;100715.69;5210533;28;20041;-70
2023/10/15 09:07:36;;;;;;;2.35;0.50;;;;;;;11.37;79.93;100718.03;5203315;28;20032;-69
2023/10/15 09:10:13;;;;;;;2.08;0.60;;;;;;;11.52;79.29;100710.50;5224848;28;20051;-70
2023/10/15 09:12:44;;;;;;;4.15;1.20;;;;;;;11.65;79.45;100716.16;5223113;28;20509;-70
2023/10/15 09:15:19;;;;;;;2.53;0.57;;;;;;;11.43;80.63;100713.44;5222732;28;20041;-69
2023/10/15 09:17:56;;;;;;;4.72;0.70;;;;;;;11.32;81.12;100714.75;5220742;28;20029;-70
2023/10/15 09:20:27;;;;;;;4.28;0.95;;;;;;;11.47;81.83;100717.63;5225554;28;20028;-69
2023/10/15 09:22:59;;;;;;;2.90;0.68;;;;;;;11.40;81.23;100713.56;5221512;28;20771;-70
2023/10/15 09:25:30;;;;;;;3.72;0.77;;;;;;;11.67;81.83;100716.94;5218667;28;20039;-70
2023/10/15 09:28:01;;;;;;;3.67;0.40;;;;;;;11.80;81.13;100723.41;5219799;28;20029;-70
2023/10/15 09:30:31;;;;;;;1.55;0.40;;;;;;;11.67;80.38;100724.78;5219081;28;20032;-70
2023/10/15 09:33:02;;;;;;;5.22;0.60;;;;;;;11.54;80.41;100726.13;5225635;28;20056;-70
2023/10/15 09:35:35;;;;;;;6.18;0.50;;;;;;;11.58;80.16;100730.38;5223041;28;20063;-70
2023/10/15 09:38:10;;;;;;;2.88;0.40;;;;;;;11.54;80.48;100740.06;5225453;28;20834;-70
2023/10/15 09:40:43;;;;;;;2.25;0.50;;;;;;;11.66;79.54;100742.28;5220661;28;20043;-72
2023/10/15 09:43:14;;;;;;;2.58;0.52;;;;;;;11.81;80.04;100736.44;5225250;28;20492;-72
2023/10/15 09:45:45;;;;;;;5.55;0.60;;;;;;;12.02;79.49;100743.50;5213743;28;20511;-72
2023/10/15 09:48:16;;;;;;;5.72;0.65;;;;;;;11.87;78.88;100738.84;5225664;28;20170;-72
2023/10/15 09:50:47;;;;;;;4.65;0.80;;;;;;;11.79;78.76;100740.06;5230606;28;20025;-72
2023/10/15 09:53:21;;;;;;;1.70;0.40;;;;;;;11.90;78.45;100751.81;5228066;28;20413;-72
2023/10/15 09:55:53;;;;;;;0.80;0.30;;;;;;;11.61;79.08;100744.19;5211391;28;20099;-73
2023/10/15 09:58:24;;;;;;;0.90;0.30;;;;;;;11.51;79.81;100752.41;5226246;28;20160;-72
2023/10/15 10:01:08;;;;;;;0.73;0.38;;;;;;;11.47;79.30;100751.66;5206919;28;20054;-72
2023/10/15 10:03:48;;;;;;;2.08;0.30;;;;;;;11.60;79.68;100747.72;5210477;28;20041;-72
2023/10/15 10:06:53;;;;;;;6.90;0.70;;;;;;;11.63;79.11;100752.84;5227423;28;20025;-73
2023/10/15 10:10:01;;;;;;;4.45;0.50;;;;;;;11.74;78.38;100760.28;5209463;28;20474;-72
2023/10/15 10:13:06;;;;;;;2.17;0.60;;;;;;;11.53;78.41;100751.47;5227354;28;20410;-72
2023/10/15 10:15:49;;;;;;;1.67;0.80;;;;;;;11.83;78.00;100757.34;5208876;28;20032;-72
2023/10/15 10:18:24;;;;;;;2.78;0.90;;;;;;;11.57;77.17;100758.31;5222799;28;20570;-73
2023/10/15 10:20:56;;;;;;;3.90;0.88;;;;;;;11.82;77.77;100760.88;5205800;28;20028;-72
2023/10/15 10:23:27;;;;;;;1.80;0.68;;;;;;;11.59;78.71;100756.50;5223873;28;20033;-72
2023/10/15 10:25:58;;;;;;;1.95;0.50;;;;;;;11.67;77.91;100764.94;5225289;28;20773;-72
2023/10/15 10:28:31;;;;;;;2.78;0.50;;;;;;;11.66;78.38;100768.47;5207087;28;20068;-72
2023/10/15 10:31:01;;;;;;;3.35;0.57;;;;;;;11.29;78.68;100773.25;5232708;28;20251;-72
2023/10/15 10:33:41;;;;;;;8.38;2.20;;;;;;;11.50;79.68;100780.38;5224334;28;20071;-72
2023/10/15 10:36:15;;;;;;;2.03;0.80;;;;;;;11.59;80.86;100777.44;5228698;28;20048;-72
2023/10/15 10:39:01;;;;;;;2.50;0.60;;;;;;;11.50;82.17;100782.97;5227333;28;20047;-72
2023/10/15 10:41:39;;;;;;;2.90;0.63;;;;;;;11.57;81.84;100776.63;5223886;28;20440;-72
2023/10/15 10:44:33;;;;;;;3.20;0.50;;;;;;;11.76;81.67;100769.81;5228360;28;20533;-72
2023/10/15 10:47:21;;;;;;;3.10;0.73;;;;;;;12.03;80.35;100781.88;5228992;28;20468;-73
2023/10/15 10:49:55;;;;;;;4.60;0.85;;;;;;;12.18;79.05;100778.69;5213066;28;20048;-72
2023/10/15 10:52:35;;;;;;;2.90;1.05;;;;;;;12.15;78.06;100773.53;5228117;28;20024;-71
2023/10/15 10:55:34;;;;;;;3.63;0.82;;;;;;;12.37;78.89;100776.16;5230827;28;20596;-72
2023/10/15 10:58:21;;;;;;;3.03;0.90;;;;;;;12.19;78.17;100775.13;5228182;28;20068;-73
2023/10/15 11:00:53;;;;;;;4.05;0.77;;;;;;;12.29;78.31;100776.47;5231420;28;20036;-72
2023/10/15 11:03:23;;;;;;;2.92;0.50;;;;;;;12.25;77.87;100774.88;5211643;28;20540;-72
2023/10/15 11:05:55;;;;;;;2.22;0.73;;;;;;;12.44;78.29;100765.38;5212430;28;20044;-72
2023/10/15 11:08:25;;;;;;;2.47;0.60;;;;;;;12.43;76.57;100761.06;5210937;28;20028;-72
2023/10/15 11:10:59;;;;;;;3.53;0.63;;;;;;;12.70;76.79;100757.31;5209223;28;20036;-72
2023/10/15 11:13:29;;;;;;;5.32;1.02;;;;;;;12.86;75.72;100745.28;5210523;28;20032;-72
2023/10/15 11:16:00;;;;;;;2.50;0.80;;;;;;;12.88;74.51;100752.16;5225614;28;20033;-72
2023/10/15 11:18:31;;;;;;;2.10;0.60;;;;;;;12.66;74.46;100753.09;5225390;28;20106;-72
2023/10/15 11:21:02;;;;;;;1.92;0.60;;;;;;;12.83;74.98;100758.50;5212927;28;20127;-72
2023/10/15 11:23:33;;;;;;;2.53;0.50;;;;;;;12.42;74.50;100758.47;5228690;28;20126;-71
2023/10/15 11:26:04;;;;;;;2.95;0.73;;;;;;;12.14;76.67;100771.81;5213711;28;20514;-73
2023/10/15 11:28:34;;;;;;;5.32;0.88;;;;;;;11.31;85.19;100800.22;5226120;28;20029;-72
2023/10/15 11:31:05;;;;;;;5.40;1.08;;;;;;;10.56;91.46;100788.88;5224741;28;20032;-72
2023/10/15 11:33:35;;;;;;;2.42;0.85;;;;;;;10.33;91.81;100793.13;5228094;28;20079;-73
2023/10/15 11:36:09;;;;;;;3.83;0.98;;;;;;;10.18;93.91;100794.41;5210210;28;20441;-73
2023/10/15 11:38:39;;;;;;;4.38;0.75;;;;;;;10.11;94.35;100792.91;5228653;28;20504;-71
2023/10/15 11:41:12;;;;;;;3.13;0.60;;;;;;;10.15;96.33;100802.34;5227862;28;20041;-71
2023/10/15 11:43:43;;;;;;;5.25;0.70;;;;;;;10.05;97.45;100795.72;5227671;28;20055;-70
2023/10/15 11:46:16;;;;;;;2.20;0.40;;;;;;;9.87;97.88;100809.28;5227990;28;20029;-72
2023/10/15 11:48:47;;;;;;;1.23;0.40;;;;;;;9.82;98.88;100808.53;5225131;28;20073;-71
2023/10/15 11:51:18;;;;;;;3.05;0.60;;;;;;;9.58;100.00;100806.63;5214294;28;20032;-71
2023/10/15 11:53:50;;;;;;;1.38;0.45;;;;;;;9.78;100.00;100795.59;5207972;28;20051;-70
2023/10/15 11:56:20;;;;;;;2.22;0.60;;;;;;;9.69;98.42;100811.53;5225821;28;20420;-71
2023/10/15 11:58:51;;;;;;;1.95;0.60;;;;;;;9.80;99.30;100812.94;5230376;28;20029;-71
2023/10/15 12:01:23;;;;;;;2.45;0.50;;;;;;;9.78;98.92;100816.50;5207991;28;20502;-71
2023/10/15 12:04:00;;;;;;;1.23;0.35;;;;;;;9.68;99.67;100815.06;5211007;28;20040;-71